Time;durP1;ratioP1;P1;durP2;ratioP2;P2;SDS_P1;SDS_P2;PMS_P1;PMS_P2;Temp;Humidity;BMP_temperature;BMP_pressure;BME280_temperature;BME280_humidity;BME280_pressure;Samples;Min_cycle;Max_cycle;Signal;HPM_P1;HPM_P2
2022/09/21 00:01:28;;;;;;;4.33;2.77;;;;;;;9.41;100.00;102654.28;2613564;36;20045;-53
2022/09/21 00:03:59;;;;;;;4.05;2.40;;;;;;;9.44;100.00;102648.72;2609668;36;20023;-55
2022/09/21 00:06:32;;;;;;;4.80;2.45;;;;;;;9.43;100.00;102656.88;2609504;36;20031;-56
2022/09/21 00:09:02;;;;;;;6.10;2.35;;;;;;;9.36;100.00;102650.09;2609463;36;20034;-55
2022/09/21 00:11:32;;;;;;;4.18;2.35;;;;;;;9.18;100.00;102646.59;2609340;31;20030;-54
2022/09/21 00:14:04;;;;;;;5.72;3.00;;;;;;;9.18;100.00;102650.16;2608878;36;20031;-52
2022/09/21 00:16:33;;;;;;;3.60;2.42;;;;;;;9.18;100.00;102655.53;2608679;36;20038;-54
2022/09/21 00:19:02;;;;;;;3.55;2.25;;;;;;;9.19;100.00;102654.59;2608544;36;20041;-53
2022/09/21 00:21:33;;;;;;;5.43;2.35;;;;;;;9.04;100.00;102650.00;2608390;36;20499;-55
2022/09/21 00:24:02;;;;;;;8.75;2.83;;;;;;;8.96;100.00;102653.13;2608646;36;20041;-56
2022/09/21 00:26:31;;;;;;;4.65;2.50;;;;;;;8.93;100.00;102654.13;2605076;36;20042;-57
2022/09/21 00:29:02;;;;;;;4.85;2.63;;;;;;;9.01;100.00;102652.88;2605343;36;20034;-55
2022/09/21 00:31:31;;;;;;;3.97;2.25;;;;;;;8.85;100.00;102652.81;2603266;36;22533;-55
2022/09/21 00:34:02;;;;;;;4.75;2.28;;;;;;;8.81;100.00;102649.44;2604511;31;20025;-55
2022/09/21 00:36:33;;;;;;;5.20;2.88;;;;;;;8.76;100.00;102652.38;2603736;36;20073;-56
2022/09/21 00:39:03;;;;;;;3.53;2.47;;;;;;;8.71;100.00;102646.34;2606582;36;20121;-55
2022/09/21 00:41:34;;;;;;;4.45;2.60;;;;;;;8.69;100.00;102650.94;2605811;36;20038;-55
2022/09/21 00:44:25;;;;;;;6.10;2.65;;;;;;;8.88;100.00;102645.47;2604841;36;20586;-55
2022/09/21 00:46:55;;;;;;;6.80;3.10;;;;;;;8.77;100.00;102654.09;2604611;36;20030;-54
2022/09/21 00:49:25;;;;;;;7.45;2.75;;;;;;;8.86;100.00;102649.19;2605774;36;20023;-55
2022/09/21 00:52:00;;;;;;;5.80;3.30;;;;;;;8.77;100.00;102650.53;2604401;36;20038;-56
2022/09/21 00:54:32;;;;;;;5.28;2.70;;;;;;;8.77;100.00;102642.47;2604567;36;20058;-54
2022/09/21 00:57:02;;;;;;;6.32;2.78;;;;;;;8.80;100.00;102650.38;2604623;31;20415;-56
2022/09/21 00:59:32;;;;;;;5.03;2.70;;;;;;;8.83;100.00;102643.97;2603892;36;20046;-55
2022/09/21 01:02:01;;;;;;;6.63;3.13;;;;;;;8.83;100.00;102646.66;2604995;36;20035;-56
2022/09/21 01:04:30;;;;;;;5.53;3.00;;;;;;;8.69;100.00;102650.09;2606755;36;20031;-55
2022/09/21 01:07:04;;;;;;;4.30;2.67;;;;;;;8.59;100.00;102650.53;2608881;31;20408;-56
2022/09/21 01:09:33;;;;;;;6.10;3.22;;;;;;;8.64;100.00;102646.75;2605411;36;20035;-54
2022/09/21 01:12:12;;;;;;;8.38;4.07;;;;;;;8.55;100.00;102650.78;2605183;36;20035;-55
2022/09/21 01:14:58;;;;;;;5.78;2.72;;;;;;;8.44;100.00;102642.41;2606498;36;20159;-54
2022/09/21 01:17:36;;;;;;;7.63;2.90;;;;;;;8.44;100.00;102647.75;2606240;36;20038;-52
2022/09/21 01:20:29;;;;;;;6.15;2.97;;;;;;;8.36;100.00;102649.03;2607774;31;21054;-55
2022/09/21 01:23:18;;;;;;;5.53;3.00;;;;;;;8.31;100.00;102645.69;2604196;31;20125;-56
2022/09/21 01:26:04;;;;;;;4.22;2.63;;;;;;;8.32;100.00;102647.44;2604022;36;20035;-58
2022/09/21 01:28:55;;;;;;;6.05;2.20;;;;;;;8.38;100.00;102641.75;2607209;36;20902;-55
2022/09/21 01:31:28;;;;;;;2.83;2.08;;;;;;;8.25;100.00;102646.00;2606315;36;20042;-55
2022/09/21 01:34:04;;;;;;;8.27;2.55;;;;;;;8.20;100.00;102643.56;2607928;36;20041;-56
2022/09/21 01:36:33;;;;;;;4.38;2.63;;;;;;;8.19;100.00;102643.63;2607278;36;20035;-54
2022/09/21 01:39:03;;;;;;;;;;;;;;;8.16;100.00;102646.47;2609673;36;20041;-52
2022/09/21 01:41:34;;;;;;;6.53;2.20;;;;;;;8.07;100.00;102647.78;2608160;36;19950;-54
2022/09/21 01:44:11;;;;;;;4.40;2.40;;;;;;;8.12;100.00;102635.00;2606586;36;20034;-56
2022/09/21 01:46:41;;;;;;;3.25;2.20;;;;;;;8.14;100.00;102637.63;2605937;36;20691;-54
2022/09/21 01:49:14;;;;;;;2.60;1.90;;;;;;;8.17;100.00;102646.38;2606203;36;20034;-57
2022/09/21 01:51:47;;;;;;;3.35;2.08;;;;;;;8.20;100.00;102634.63;2605416;31;20459;-55
2022/09/21 01:54:20;;;;;;;4.25;2.20;;;;;;;8.07;100.00;102640.59;2606567;36;20391;-54
2022/09/21 01:56:53;;;;;;;5.15;2.10;;;;;;;8.00;100.00;102641.84;2606298;36;20042;-58
2022/09/21 01:59:32;;;;;;;5.43;2.20;;;;;;;7.90;100.00;102648.59;2604540;36;20041;-56
2022/09/21 02:02:06;;;;;;;5.78;2.28;;;;;;;7.91;100.00;102647.66;2605175;36;20034;-55
2022/09/21 02:04:37;;;;;;;6.68;2.03;;;;;;;7.92;100.00;102643.16;2607586;36;20578;-53
2022/09/21 02:07:06;;;;;;;2.20;1.90;;;;;;;7.91;100.00;102647.66;2604516;36;20030;-52
2022/09/21 02:09:36;;;;;;;3.65;2.25;;;;;;;7.89;100.00;102645.06;2605252;36;20076;-54
2022/09/21 02:12:04;;;;;;;6.15;2.55;;;;;;;7.89;100.00;102649.53;2606119;36;20037;-54
2022/09/21 02:14:39;;;;;;;3.80;1.90;;;;;;;7.97;100.00;102646.50;2604292;36;20280;-57
2022/09/21 02:17:24;;;;;;;4.32;2.10;;;;;;;7.93;100.00;102650.28;2606975;36;20038;-54
2022/09/21 02:20:00;;;;;;;3.88;2.25;;;;;;;7.83;100.00;102639.13;2606052;36;20037;-58
2022/09/21 02:22:34;;;;;;;5.70;2.97;;;;;;;7.76;100.00;102640.34;2606392;36;20042;-55
2022/09/21 02:25:09;;;;;;;5.95;2.58;;;;;;;7.82;100.00;102640.09;2606188;36;20038;-56
2022/09/21 02:27:43;;;;;;;4.07;2.50;;;;;;;7.84;100.00;102640.88;2606752;36;20358;-53
2022/09/21 02:30:18;;;;;;;5.80;2.58;;;;;;;7.78;100.00;102641.16;2605201;36;20035;-53
2022/09/21 02:32:56;;;;;;;5.43;2.92;;;;;;;7.66;100.00;102640.81;2605500;36;20034;-50
2022/09/21 02:35:35;;;;;;;5.15;2.55;;;;;;;7.65;100.00;102641.72;2607011;36;20027;-56
2022/09/21 02:38:12;;;;;;;3.90;2.42;;;;;;;7.67;100.00;102647.91;2603187;36;20034;-54
2022/09/21 02:40:45;;;;;;;5.82;2.75;;;;;;;7.65;100.00;102641.72;2606179;31;20384;-55
2022/09/21 02:43:21;;;;;;;6.32;2.78;;;;;;;7.67;100.00;102642.56;2604618;36;20143;-56
2022/09/21 02:45:55;;;;;;;6.75;2.88;;;;;;;7.46;100.00;102638.19;2604117;36;20434;-55
2022/09/21 02:48:29;;;;;;;5.38;3.15;;;;;;;7.57;100.00;102640.34;2605631;36;20046;-55
2022/09/21 02:51:01;;;;;;;7.65;3.47;;;;;;;7.62;100.00;102647.25;2601994;36;20778;-58
2022/09/21 02:53:33;;;;;;;8.80;4.22;;;;;;;7.50;100.00;102637.97;2605324;36;20038;-57
2022/09/21 02:56:06;;;;;;;6.18;3.50;;;;;;;7.33;100.00;102630.75;2603985;31;20037;-56
2022/09/21 02:58:39;;;;;;;8.73;3.20;;;;;;;7.36;100.00;102635.97;2605248;36;20050;-53
2022/09/21 03:01:13;;;;;;;7.32;3.88;;;;;;;7.28;100.00;102638.13;2602605;36;20030;-54
2022/09/21 03:03:41;;;;;;;8.95;3.88;;;;;;;7.26;100.00;102631.06;2602076;31;20034;-53
2022/09/21 03:06:10;;;;;;;7.93;3.17;;;;;;;7.28;100.00;102638.13;2605180;31;20455;-51
2022/09/21 03:08:38;;;;;;;5.20;3.60;;;;;;;7.26;100.00;102636.44;2606483;31;20570;-55
2022/09/21 03:11:07;;;;;;;6.20;3.13;;;;;;;7.15;100.00;102642.28;2604494;36;20035;-53
2022/09/21 03:13:35;;;;;;;5.97;3.10;;;;;;;7.13;100.00;102642.38;2607008;36;20126;-56
2022/09/21 03:16:05;;;;;;;8.25;2.80;;;;;;;7.21;100.00;102651.88;2605869;36;20031;-55
2022/09/21 03:18:38;;;;;;;4.60;3.00;;;;;;;7.35;100.00;102647.59;2607811;36;20073;-54
2022/09/21 03:21:06;;;;;;;3.97;2.35;;;;;;;7.27;100.00;102641.72;2607404;36;20563;-58
2022/09/21 03:23:35;;;;;;;7.50;3.00;;;;;;;7.17;100.00;102646.66;2606871;36;22585;-56
2022/09/21 03:26:03;;;;;;;5.05;3.00;;;;;;;7.24;100.00;102649.03;2605842;36;22502;-52
2022/09/21 03:28:32;;;;;;;6.18;2.70;;;;;;;7.37;100.00;102653.75;2606090;36;20034;-53
2022/09/21 03:31:00;;;;;;;4.63;2.60;;;;;;;7.17;100.00;102645.78;2604844;36;20039;-56
2022/09/21 03:33:29;;;;;;;8.93;2.97;;;;;;;7.08;100.00;102646.19;2606456;36;20443;-53
2022/09/21 03:36:00;;;;;;;6.22;3.05;;;;;;;7.05;100.00;102657.91;2607138;36;21864;-54
2022/09/21 03:38:28;;;;;;;7.95;2.80;;;;;;;7.10;100.00;102661.25;2607136;36;20471;-53
2022/09/21 03:40:56;;;;;;;9.88;2.85;;;;;;;7.11;100.00;102654.97;2607017;36;20031;-51
2022/09/21 03:43:26;;;;;;;6.60;2.17;;;;;;;7.12;100.00;102653.16;2604716;36;20058;-54
2022/09/21 03:45:55;;;;;;;4.38;2.30;;;;;;;7.22;100.00;102657.16;2606611;36;20033;-53
2022/09/21 03:48:23;;;;;;;4.82;2.15;;;;;;;7.12;100.00;102655.81;2606265;36;20038;-55
2022/09/21 03:50:52;;;;;;;3.83;2.20;;;;;;;6.97;100.00;102658.25;2608197;36;20060;-52
2022/09/21 03:53:23;;;;;;;5.77;2.47;;;;;;;6.95;100.00;102659.25;2604374;36;20310;-53
2022/09/21 03:55:51;;;;;;;5.45;2.50;;;;;;;7.03;100.00;102658.94;2605171;36;20307;-57
2022/09/21 03:58:21;;;;;;;7.35;2.67;;;;;;;7.02;100.00;102660.72;2604334;31;20578;-56
2022/09/21 04:00:49;;;;;;;7.43;3.40;;;;;;;6.93;100.00;102651.28;2605138;36;20019;-57
2022/09/21 04:03:17;;;;;;;7.47;3.15;;;;;;;6.91;100.00;102661.19;2606862;36;20042;-56
2022/09/21 04:05:46;;;;;;;8.40;3.50;;;;;;;6.85;100.00;102653.44;2604510;36;20034;-56
2022/09/21 04:08:17;;;;;;;5.10;2.42;;;;;;;6.83;100.00;102656.19;2605188;36;20042;-53
2022/09/21 04:10:52;;;;;;;9.55;3.00;;;;;;;6.87;100.00;102653.38;2602005;36;20030;-52
2022/09/21 04:13:23;;;;;;;6.75;3.03;;;;;;;6.97;100.00;102655.56;2604803;31;20035;-53
2022/09/21 04:15:51;;;;;;;7.63;3.00;;;;;;;6.97;100.00;102649.34;2604489;36;20129;-56
2022/09/21 04:18:19;;;;;;;8.38;2.33;;;;;;;6.82;100.00;102657.13;2605021;36;20474;-52
2022/09/21 04:20:48;;;;;;;9.95;3.30;;;;;;;6.88;100.00;102650.63;2605814;36;21999;-56
2022/09/21 04:23:16;;;;;;;6.20;3.00;;;;;;;6.84;100.00;102655.22;2605549;36;20041;-54
2022/09/21 04:25:50;;;;;;;7.70;2.80;;;;;;;6.89;100.00;102667.56;2605974;36;20038;-55
2022/09/21 04:28:19;;;;;;;7.25;2.92;;;;;;;6.86;100.00;102656.97;2606552;36;20034;-52
2022/09/21 04:30:47;;;;;;;7.97;2.63;;;;;;;6.87;100.00;102659.59;2604801;36;20034;-55
2022/09/21 04:33:15;;;;;;;8.27;2.80;;;;;;;6.92;100.00;102659.38;2606418;36;20045;-51
2022/09/21 04:35:47;;;;;;;10.88;3.13;;;;;;;6.82;100.00;102659.78;2604287;54;20030;-53
2022/09/21 04:38:15;;;;;;;7.35;2.92;;;;;;;6.73;100.00;102667.34;2604149;31;20029;-55
2022/09/21 04:40:43;;;;;;;8.57;3.15;;;;;;;6.77;100.00;102669.84;2605745;36;20034;-53
2022/09/21 04:43:14;;;;;;;7.18;2.88;;;;;;;6.82;100.00;102666.97;2609060;36;20045;-55
2022/09/21 04:45:43;;;;;;;8.18;2.95;;;;;;;6.75;100.00;102671.69;2606588;36;20035;-56
2022/09/21 04:48:11;;;;;;;5.38;2.60;;;;;;;6.85;100.00;102666.84;2613744;36;20034;-54
2022/09/21 04:50:39;;;;;;;6.10;2.80;;;;;;;6.82;100.00;102669.66;2616027;36;20041;-52
2022/09/21 04:53:08;;;;;;;6.13;2.88;;;;;;;6.74;100.00;102679.81;2614323;36;20041;-50
2022/09/21 04:55:36;;;;;;;8.30;2.95;;;;;;;6.71;100.00;102678.13;2615220;31;20609;-57
2022/09/21 04:58:05;;;;;;;3.85;2.15;;;;;;;6.66;100.00;102678.31;2615737;36;20061;-55
2022/09/21 05:00:35;;;;;;;6.05;2.55;;;;;;;6.78;100.00;102676.91;2615045;31;20035;-54
2022/09/21 05:03:04;;;;;;;6.15;2.83;;;;;;;6.80;100.00;102674.19;2613818;36;20034;-54
2022/09/21 05:05:32;;;;;;;4.25;2.28;;;;;;;6.74;100.00;102669.09;2613378;36;20038;-53
2022/09/21 05:08:01;;;;;;;3.70;2.33;;;;;;;6.68;100.00;102680.06;2613195;36;22411;-50
2022/09/21 05:10:27;;;;;;;8.65;2.70;;;;;;;6.63;100.00;102667.75;2615806;36;20046;-54
2022/09/21 05:12:55;;;;;;;4.60;2.75;;;;;;;6.62;100.00;102676.69;2616525;31;20459;-56
2022/09/21 05:15:23;;;;;;;5.05;2.70;;;;;;;6.60;100.00;102673.25;2614269;36;20034;-49
2022/09/21 05:17:54;;;;;;;4.60;2.20;;;;;;;6.56;100.00;102682.31;2615763;36;20030;-52
2022/09/21 05:20:23;;;;;;;5.35;2.55;;;;;;;6.72;100.00;102687.91;2613560;31;20397;-52
2022/09/21 05:22:51;;;;;;;7.50;2.75;;;;;;;6.71;100.00;102688.81;2612738;31;20046;-53
2022/09/21 05:25:19;;;;;;;6.15;2.60;;;;;;;6.75;100.00;102689.56;2612727;36;20045;-52
2022/09/21 05:27:48;;;;;;;5.53;2.63;;;;;;;6.69;100.00;102693.38;2613826;36;20030;-55
2022/09/21 05:30:17;;;;;;;6.55;3.40;;;;;;;6.70;100.00;102691.56;2615233;31;20057;-56
2022/09/21 05:32:53;;;;;;;6.47;2.42;;;;;;;6.68;100.00;102690.78;2616358;31;20510;-54
2022/09/21 05:35:33;;;;;;;5.50;2.80;;;;;;;6.66;100.00;102688.16;2615193;36;20038;-54
2022/09/21 05:38:09;;;;;;;4.75;2.97;;;;;;;6.66;100.00;102686.34;2613978;36;20030;-56
2022/09/21 05:40:38;;;;;;;6.28;3.40;;;;;;;6.70;100.00;102689.78;2615210;36;20034;-57
2022/09/21 05:43:06;;;;;;;7.75;3.70;;;;;;;6.87;100.00;102686.34;2613426;36;20570;-59
2022/09/21 05:45:35;;;;;;;6.75;3.63;;;;;;;6.87;100.00;102693.53;2613568;36;20034;-50
2022/09/21 05:48:13;;;;;;;8.15;3.83;;;;;;;6.92;100.00;102695.06;2613916;36;20450;-56
2022/09/21 05:50:54;;;;;;;9.55;4.22;;;;;;;6.91;100.00;102693.31;2612902;36;20035;-53
2022/09/21 05:53:51;;;;;;;9.27;3.90;;;;;;;6.98;100.00;102685.91;2612663;36;20030;-52
2022/09/21 05:56:32;;;;;;;7.03;4.05;;;;;;;6.85;100.00;102693.59;2611140;36;20596;-57
2022/09/21 05:59:13;;;;;;;10.57;4.00;;;;;;;6.79;100.00;102693.88;2613160;36;20038;-55
2022/09/21 06:02:03;;;;;;;11.38;4.90;;;;;;;6.89;100.00;102695.22;2613999;36;20042;-56
2022/09/21 06:04:32;;;;;;;8.73;4.82;;;;;;;7.07;100.00;102696.19;2613270;31;20859;-55
2022/09/21 06:07:03;;;;;;;9.63;4.25;;;;;;;7.17;100.00;102696.66;2613066;36;20268;-55
2022/09/21 06:09:31;;;;;;;10.35;4.68;;;;;;;7.18;100.00;102696.59;2614290;36;20046;-58
2022/09/21 06:11:59;;;;;;;10.48;4.60;;;;;;;7.13;100.00;102697.75;2612923;31;20039;-58
2022/09/21 06:14:28;;;;;;;8.90;3.97;;;;;;;7.20;100.00;102696.53;2614672;31;20030;-52
2022/09/21 06:16:56;;;;;;;9.60;4.50;;;;;;;7.26;100.00;102698.94;2614202;36;20057;-51
2022/09/21 06:19:24;;;;;;;7.50;3.90;;;;;;;7.25;100.00;102701.69;2615535;36;20428;-53
2022/09/21 06:21:53;;;;;;;5.38;3.55;;;;;;;7.29;100.00;102704.16;2615563;36;20419;-55
2022/09/21 06:24:24;;;;;;;5.82;3.20;;;;;;;7.30;100.00;102710.34;2616077;36;20049;-55
2022/09/21 06:26:52;;;;;;;6.07;3.33;;;;;;;7.36;100.00;102704.72;2611406;36;20034;-54
2022/09/21 06:29:22;;;;;;;5.50;3.25;;;;;;;7.54;100.00;102709.25;2613728;36;20038;-53
2022/09/21 06:31:51;;;;;;;4.25;2.90;;;;;;;7.57;100.00;102708.25;2613208;31;20038;-54
2022/09/21 06:34:20;;;;;;;5.30;2.88;;;;;;;7.64;100.00;102708.81;2614565;36;20039;-56
2022/09/21 06:36:48;;;;;;;5.20;2.80;;;;;;;7.73;100.00;102713.75;2613430;36;20030;-53
2022/09/21 06:39:16;;;;;;;4.50;3.00;;;;;;;7.83;100.00;102708.81;2612731;36;20059;-53
2022/09/21 06:41:47;;;;;;;6.50;3.10;;;;;;;7.92;100.00;102711.09;2600743;36;20045;-55
2022/09/21 06:44:16;;;;;;;5.38;2.85;;;;;;;8.04;100.00;102712.31;2611066;36;20073;-54
2022/09/21 06:46:44;;;;;;;6.40;3.50;;;;;;;8.17;100.00;102707.19;2610614;36;20034;-56
2022/09/21 06:49:12;;;;;;;5.22;3.03;;;;;;;8.27;100.00;102713.84;2610437;31;20034;-56
2022/09/21 06:51:41;;;;;;;5.63;3.22;;;;;;;8.36;100.00;102708.03;2610701;36;20018;-52
2022/09/21 06:54:10;;;;;;;4.07;2.95;;;;;;;8.54;100.00;102710.78;2610622;31;20547;-57
2022/09/21 06:56:38;;;;;;;4.70;3.20;;;;;;;8.74;100.00;102707.06;2611701;36;20038;-54
2022/09/21 06:59:09;;;;;;;5.20;3.55;;;;;;;8.94;100.00;102709.59;2612102;31;20035;-55
2022/09/21 07:01:38;;;;;;;6.75;3.25;;;;;;;9.20;100.00;102709.16;2611651;36;20045;-55
2022/09/21 07:04:08;;;;;;;5.70;4.20;;;;;;;9.50;100.00;102711.19;2611203;36;20061;-54
2022/09/21 07:06:36;;;;;;;7.88;4.45;;;;;;;9.74;100.00;102722.41;2612408;31;20498;-53
2022/09/21 07:09:05;;;;;;;8.23;4.20;;;;;;;10.09;100.00;102717.72;2611608;36;20035;-55
2022/09/21 07:11:33;;;;;;;9.10;4.53;;;;;;;10.40;100.00;102721.38;2612307;36;20039;-55
2022/09/21 07:14:02;;;;;;;6.45;4.20;;;;;;;10.69;100.00;102716.97;2612889;36;20061;-57
2022/09/21 07:16:33;;;;;;;;;;;;;;;10.90;100.00;102721.19;2612486;31;20396;-57
2022/09/21 07:19:03;;;;;;;5.63;3.50;;;;;;;11.11;100.00;102722.56;2611813;36;19951;-55
2022/09/21 07:21:31;;;;;;;;;;;;;;;11.30;100.00;102719.59;2611926;36;20110;-56
2022/09/21 07:24:00;;;;;;;7.18;3.42;;;;;;;11.38;100.00;102721.81;2611110;36;20811;-58
2022/09/21 07:26:29;;;;;;;12.25;4.35;;;;;;;11.60;100.00;102715.06;2610248;36;20069;-56
2022/09/21 07:28:58;;;;;;;6.53;3.17;;;;;;;11.81;100.00;102711.00;2611766;36;20034;-58
2022/09/21 07:31:26;;;;;;;6.57;3.05;;;;;;;11.97;100.00;102718.13;2610336;36;20549;-55
2022/09/21 07:33:59;;;;;;;7.95;3.30;;;;;;;12.13;100.00;102708.09;2610446;36;20614;-57
2022/09/21 07:36:27;;;;;;;7.00;2.75;;;;;;;12.18;100.00;102716.75;2611472;36;20134;-56
2022/09/21 07:38:56;;;;;;;8.45;2.78;;;;;;;12.33;100.00;102708.59;2611315;36;20038;-55
2022/09/21 07:41:24;;;;;;;3.45;1.77;;;;;;;12.47;100.00;102700.44;2611286;31;20035;-57
2022/09/21 07:43:53;;;;;;;10.65;1.88;;;;;;;12.52;100.00;102692.88;2607065;36;20095;-56
2022/09/21 07:46:22;;;;;;;4.50;2.33;;;;;;;12.60;100.00;102700.47;2609424;36;20037;-59
2022/09/21 07:48:50;;;;;;;14.63;3.33;;;;;;;12.49;100.00;102708.44;2611177;36;20162;-58
2022/09/21 07:51:22;;;;;;;10.80;3.05;;;;;;;12.61;100.00;102703.06;2611032;36;20034;-55
2022/09/21 07:53:50;;;;;;;8.48;3.03;;;;;;;12.83;100.00;102696.19;2607022;36;20062;-57
2022/09/21 07:56:19;;;;;;;13.98;3.13;;;;;;;13.03;100.00;102705.63;2610974;36;20053;-56
2022/09/21 08:01:29;;;;;;;10.00;3.38;;;;;;;13.29;100.00;102697.50;2613092;36;20039;-58
2022/09/21 08:03:59;;;;;;;13.65;4.45;;;;;;;13.54;100.00;102696.66;2609751;36;20034;-57
2022/09/21 08:06:34;;;;;;;10.00;3.60;;;;;;;13.65;100.00;102699.44;2610281;36;20058;-57
2022/09/21 08:09:03;;;;;;;12.98;3.85;;;;;;;13.75;100.00;102701.47;2610117;36;20075;-58
2022/09/21 08:11:32;;;;;;;12.45;3.83;;;;;;;13.90;100.00;102697.66;2610767;36;20435;-56
2022/09/21 08:14:03;;;;;;;11.00;4.10;;;;;;;13.78;100.00;102698.53;2613045;31;20065;-58
2022/09/21 08:16:33;;;;;;;11.05;2.95;;;;;;;13.81;100.00;102692.94;2614016;31;20038;-58
2022/09/21 08:19:01;;;;;;;8.77;2.78;;;;;;;14.08;100.00;102695.44;2615466;36;20069;-58
2022/09/21 08:21:36;;;;;;;7.60;2.78;;;;;;;14.29;100.00;102692.09;2613522;54;20618;-56
2022/09/21 08:24:05;;;;;;;6.93;2.28;;;;;;;14.16;100.00;102692.16;2612956;31;20474;-57
2022/09/21 08:26:33;;;;;;;6.80;1.95;;;;;;;14.23;100.00;102692.56;2611359;36;20038;-58
2022/09/21 08:29:02;;;;;;;9.80;2.60;;;;;;;14.29;100.00;102697.53;2611772;36;20038;-56
2022/09/21 08:31:30;;;;;;;6.07;2.10;;;;;;;14.20;100.00;102694.50;2613391;36;20711;-53
2022/09/21 08:33:59;;;;;;;5.80;2.10;;;;;;;14.45;100.00;102695.38;2610307;36;20065;-58
2022/09/21 08:36:27;;;;;;;6.13;1.85;;;;;;;14.52;100.00;102701.19;2612345;36;20038;-58
2022/09/21 08:38:58;;;;;;;9.65;2.58;;;;;;;14.45;100.00;102708.06;2611646;36;20034;-57
2022/09/21 08:41:34;;;;;;;4.45;1.92;;;;;;;14.63;100.00;102706.69;2613228;36;20031;-56
2022/09/21 08:44:07;;;;;;;4.32;1.50;;;;;;;14.84;100.00;102704.19;2610392;31;20039;-57
2022/09/21 08:46:37;;;;;;;10.15;1.88;;;;;;;14.93;100.00;102710.72;2612390;36;20430;-52
2022/09/21 08:49:10;;;;;;;4.70;1.30;;;;;;;15.23;100.00;102709.31;2610701;36;20198;-58
2022/09/21 08:51:43;;;;;;;6.50;1.50;;;;;;;15.55;100.00;102708.59;2603839;36;20037;-57
2022/09/21 08:54:20;;;;;;;5.05;1.63;;;;;;;15.37;100.00;102711.78;2610099;36;20038;-56
2022/09/21 08:56:49;;;;;;;9.57;1.83;;;;;;;15.15;100.00;102700.91;2613128;36;20030;-57
2022/09/21 08:59:17;;;;;;;4.80;1.48;;;;;;;15.02;100.00;102698.31;2610676;36;20112;-58
2022/09/21 09:01:58;;;;;;;3.93;1.60;;;;;;;15.27;100.00;102699.94;2604827;36;21787;-57
2022/09/21 09:04:51;;;;;;;5.75;1.30;;;;;;;15.21;100.00;102701.28;2610089;36;20275;-59
2022/09/21 09:07:33;;;;;;;5.47;1.40;;;;;;;15.47;100.00;102705.63;2610320;36;20038;-57
2022/09/21 09:10:28;;;;;;;3.20;1.27;;;;;;;15.09;100.00;102706.81;2609560;36;20026;-58
2022/09/21 09:13:12;;;;;;;4.10;1.40;;;;;;;14.94;100.00;102708.88;2610917;36;20069;-59
2022/09/21 09:15:56;;;;;;;6.53;1.75;;;;;;;15.18;100.00;102708.78;2611800;36;20656;-57
2022/09/21 09:18:30;;;;;;;5.70;1.83;;;;;;;15.37;100.00;102709.06;2611072;36;20163;-56
2022/09/21 09:21:02;;;;;;;3.33;1.15;;;;;;;15.76;100.00;102706.84;2612518;36;20042;-58
2022/09/21 09:23:37;;;;;;;3.65;1.42;;;;;;;15.68;100.00;102706.59;2612549;36;20038;-59
2022/09/21 09:26:13;;;;;;;2.97;1.17;;;;;;;15.70;100.00;102711.91;2612130;36;20026;-58
2022/09/21 09:28:46;;;;;;;5.78;1.60;;;;;;;15.63;100.00;102711.53;2612306;36;20039;-58
2022/09/21 09:31:20;;;;;;;7.50;1.85;;;;;;;16.07;100.00;102709.78;2614862;36;20041;-58
2022/09/21 09:33:55;;;;;;;4.15;1.38;;;;;;;16.03;100.00;102708.31;2614286;36;20035;-58
2022/09/21 09:36:27;;;;;;;4.88;1.58;;;;;;;16.47;100.00;102711.00;2614327;31;20045;-58
2022/09/21 09:38:59;;;;;;;8.32;1.23;;;;;;;16.60;100.00;102714.41;2613332;36;20066;-58
2022/09/21 09:41:57;;;;;;;11.13;1.85;;;;;;;17.24;100.00;102715.34;2614147;36;20038;-58
2022/09/21 09:44:56;;;;;;;9.05;1.95;;;;;;;17.23;100.00;102712.75;2610100;36;20646;-58
2022/09/21 09:47:32;;;;;;;;;;;;;;;17.31;100.00;102712.91;2615820;36;20439;-58
2022/09/21 09:50:07;;;;;;;2.88;1.23;;;;;;;17.08;100.00;102710.38;2613636;36;19939;-59
2022/09/21 09:52:36;;;;;;;4.28;1.20;;;;;;;17.40;100.00;102713.97;2611838;36;20045;-58
2022/09/21 09:55:19;;;;;;;2.35;1.00;;;;;;;17.13;100.00;102713.53;2611755;36;20471;-59
2022/09/21 09:57:48;;;;;;;3.53;1.10;;;;;;;17.35;100.00;102706.22;2612424;36;20034;-56
2022/09/21 10:00:21;;;;;;;6.38;1.08;;;;;;;17.45;100.00;102709.00;2614169;31;20034;-59
2022/09/21 10:02:52;;;;;;;6.00;1.35;;;;;;;17.43;100.00;102703.69;2606525;36;20023;-58
2022/09/21 10:05:23;;;;;;;3.97;1.30;;;;;;;17.44;100.00;102705.38;2606407;31;20349;-57
2022/09/21 10:07:53;;;;;;;2.15;1.02;;;;;;;16.86;100.00;102705.91;2612871;36;20031;-59
2022/09/21 10:10:33;;;;;;;2.33;1.02;;;;;;;16.84;100.00;102707.00;2612528;36;20535;-57
2022/09/21 10:13:11;;;;;;;3.65;1.30;;;;;;;16.44;100.00;102706.72;2610975;36;20123;-59
2022/09/21 10:15:50;;;;;;;2.17;1.27;;;;;;;16.14;100.00;102712.88;2613218;36;20034;-57
2022/09/21 10:18:24;;;;;;;4.90;1.40;;;;;;;15.65;100.00;102717.72;2612195;31;20384;-58
2022/09/21 10:20:58;;;;;;;4.00;1.23;;;;;;;15.71;100.00;102709.06;2612795;36;20430;-57
2022/09/21 10:23:28;;;;;;;3.70;1.27;;;;;;;15.65;100.00;102706.88;2612484;36;20035;-59
2022/09/21 10:26:00;;;;;;;2.72;1.20;;;;;;;15.50;100.00;102699.94;2611738;31;20034;-58
2022/09/21 10:28:29;;;;;;;3.35;1.35;;;;;;;15.35;100.00;102702.88;2613651;36;20586;-59
2022/09/21 10:31:21;;;;;;;6.03;1.30;;;;;;;15.19;100.00;102705.09;2611999;36;20157;-56
2022/09/21 10:33:53;;;;;;;4.20;1.13;;;;;;;15.22;100.00;102703.03;2611972;36;20038;-57
2022/09/21 10:36:39;;;;;;;4.00;1.20;;;;;;;15.21;100.00;102700.44;2612511;36;20031;-58
2022/09/21 10:39:26;;;;;;;4.32;1.25;;;;;;;15.13;100.00;102708.31;2611915;36;20042;-58
2022/09/21 10:41:59;;;;;;;3.80;1.55;;;;;;;15.51;100.00;102702.53;2611717;31;20061;-58
2022/09/21 10:44:30;;;;;;;4.43;1.33;;;;;;;16.13;100.00;102691.25;2610950;36;20043;-58
2022/09/21 10:47:06;;;;;;;5.18;1.50;;;;;;;16.16;100.00;102691.84;2613788;36;20034;-58
2022/09/21 10:49:35;;;;;;;5.00;1.40;;;;;;;16.55;100.00;102685.88;2611209;36;20038;-57
2022/09/21 10:52:04;;;;;;;3.28;1.23;;;;;;;16.65;100.00;102692.25;2612106;36;20035;-57
2022/09/21 10:54:35;;;;;;;4.15;1.33;;;;;;;17.01;100.00;102697.44;2615244;36;20041;-57
2022/09/21 10:57:10;;;;;;;4.47;1.55;;;;;;;16.84;100.00;102690.69;2611214;36;20034;-58
2022/09/21 10:59:39;;;;;;;2.05;1.00;;;;;;;16.61;100.00;102690.84;2610668;36;20444;-57
2022/09/21 11:02:28;;;;;;;2.63;0.98;;;;;;;17.11;100.00;102692.91;2611830;36;20026;-57
2022/09/21 11:05:02;;;;;;;4.00;0.98;;;;;;;17.13;100.00;102693.63;2605503;36;20548;-58
2022/09/21 11:07:36;;;;;;;4.20;1.10;;;;;;;17.07;100.00;102697.75;2611411;31;20150;-57
2022/09/21 11:10:14;;;;;;;2.47;0.95;;;;;;;17.23;100.00;102690.97;2614604;36;20035;-58
2022/09/21 11:12:53;;;;;;;3.80;1.50;;;;;;;17.57;100.00;102687.97;2605669;36;20077;-57
2022/09/21 11:15:32;;;;;;;7.53;1.00;;;;;;;17.75;100.00;102685.44;2612164;36;20038;-59
2022/09/21 11:18:07;;;;;;;;;;;;;;;17.97;100.00;102679.78;2613542;31;20033;-59
2022/09/21 11:20:43;;;;;;;3.70;1.00;;;;;;;18.13;100.00;102676.53;2611540;36;19947;-58
2022/09/21 11:23:26;;;;;;;5.35;1.08;;;;;;;17.98;100.00;102677.94;2612479;36;20038;-57
2022/09/21 11:26:06;;;;;;;4.55;1.10;;;;;;;18.29;100.00;102681.41;2611308;36;20354;-59
2022/09/21 11:28:41;;;;;;;2.90;1.00;;;;;;;18.39;100.00;102678.72;2611515;36;20041;-58
2022/09/21 11:31:40;;;;;;;1.70;0.70;;;;;;;18.86;100.00;102667.94;2612244;36;20034;-57
2022/09/21 11:34:27;;;;;;;2.90;0.90;;;;;;;19.11;100.00;102668.31;2611187;36;20409;-58
2022/09/21 11:37:08;;;;;;;2.88;0.93;;;;;;;18.78;100.00;102666.91;2613456;36;20050;-58
2022/09/21 11:39:56;;;;;;;3.45;1.20;;;;;;;18.71;100.00;102669.34;2613085;36;20048;-57
2022/09/21 11:42:40;;;;;;;3.20;1.10;;;;;;;18.63;100.00;102667.34;2611746;31;20583;-58
2022/09/21 11:45:20;;;;;;;3.05;1.10;;;;;;;18.68;100.00;102666.91;2612263;36;20034;-57
2022/09/21 11:48:03;;;;;;;2.00;0.80;;;;;;;18.51;100.00;102660.34;2613284;36;20030;-58
2022/09/21 11:50:48;;;;;;;3.08;1.30;;;;;;;18.78;100.00;102659.56;2612034;36;20034;-58